sensor_id;sensor_type;location;lat;lon;timestamp;P1;durP1;ratioP1;P2;durP2;ratioP2
1366;SDS011;16877;48.810;9.282;2022-09-13T00:01:49;2.50;;;1.30;;
1366;SDS011;16877;48.810;9.282;2022-09-13T00:04:16;2.90;;;1.40;;
1366;SDS011;16877;48.810;9.282;2022-09-13T00:06:42;2.50;;;1.50;;
1366;SDS011;16877;48.810;9.282;2022-09-13T00:09:09;2.50;;;1.50;;
1366;SDS011;16877;48.810;9.282;2022-09-13T00:11:36;2.90;;;1.70;;
1366;SDS011;16877;48.810;9.282;2022-09-13T00:14:02;2.67;;;1.13;;
1366;SDS011;16877;48.810;9.282;2022-09-13T00:16:29;2.70;;;1.50;;
1366;SDS011;16877;48.810;9.282;2022-09-13T00:18:58;3.60;;;1.70;;
1366;SDS011;16877;48.810;9.282;2022-09-13T00:21:25;2.23;;;1.43;;
1366;SDS011;16877;48.810;9.282;2022-09-13T00:23:52;2.30;;;1.93;;
1366;SDS011;16877;48.810;9.282;2022-09-13T00:26:20;2.47;;;1.47;;
1366;SDS011;16877;48.810;9.282;2022-09-13T00:28:48;3.17;;;1.80;;
1366;SDS011;16877;48.810;9.282;2022-09-13T00:31:16;3.80;;;1.73;;
1366;SDS011;16877;48.810;9.282;2022-09-13T00:33:43;4.10;;;1.40;;
1366;SDS011;16877;48.810;9.282;2022-09-13T00:36:11;3.00;;;1.70;;
1366;SDS011;16877;48.810;9.282;2022-09-13T00:38:39;2.37;;;1.60;;
1366;SDS011;16877;48.810;9.282;2022-09-13T00:41:08;2.33;;;1.60;;
1366;SDS011;16877;48.810;9.282;2022-09-13T00:43:39;2.13;;;1.43;;
1366;SDS011;16877;48.810;9.282;2022-09-13T00:46:07;2.67;;;1.90;;
1366;SDS011;16877;48.810;9.282;2022-09-13T00:48:35;2.30;;;1.67;;
1366;SDS011;16877;48.810;9.282;2022-09-13T00:51:02;2.30;;;1.43;;
1366;SDS011;16877;48.810;9.282;2022-09-13T00:53:34;2.37;;;1.60;;
1366;SDS011;16877;48.810;9.282;2022-09-13T00:56:05;2.83;;;1.97;;
1366;SDS011;16877;48.810;9.282;2022-09-13T00:58:35;2.13;;;1.60;;
1366;SDS011;16877;48.810;9.282;2022-09-13T01:01:06;2.83;;;1.60;;
1366;SDS011;16877;48.810;9.282;2022-09-13T01:03:36;2.30;;;1.60;;
1366;SDS011;16877;48.810;9.282;2022-09-13T01:06:05;2.50;;;1.63;;
1366;SDS011;16877;48.810;9.282;2022-09-13T01:08:37;3.07;;;1.80;;
1366;SDS011;16877;48.810;9.282;2022-09-13T01:11:07;2.87;;;2.10;;
1366;SDS011;16877;48.810;9.282;2022-09-13T01:13:38;2.60;;;1.83;;
1366;SDS011;16877;48.810;9.282;2022-09-13T01:16:06;3.07;;;1.83;;
1366;SDS011;16877;48.810;9.282;2022-09-13T01:18:33;2.67;;;2.00;;
1366;SDS011;16877;48.810;9.282;2022-09-13T01:24:13;2.10;;;1.20;;
1366;SDS011;16877;48.810;9.282;2022-09-13T01:27:01;3.00;;;1.90;;
1366;SDS011;16877;48.810;9.282;2022-09-13T01:29:57;3.00;;;1.87;;
1366;SDS011;16877;48.810;9.282;2022-09-13T01:32:36;2.10;;;1.40;;
1366;SDS011;16877;48.810;9.282;2022-09-13T01:35:15;2.83;;;1.70;;
1366;SDS011;16877;48.810;9.282;2022-09-13T01:37:53;2.83;;;1.70;;
1366;SDS011;16877;48.810;9.282;2022-09-13T01:40:27;2.10;;;1.27;;
1366;SDS011;16877;48.810;9.282;2022-09-13T01:43:06;2.30;;;1.60;;
1366;SDS011;16877;48.810;9.282;2022-09-13T01:45:47;3.33;;;2.20;;
1366;SDS011;16877;48.810;9.282;2022-09-13T01:48:22;2.30;;;1.77;;
1366;SDS011;16877;48.810;9.282;2022-09-13T01:50:58;2.77;;;1.70;;
1366;SDS011;16877;48.810;9.282;2022-09-13T01:53:30;3.17;;;2.17;;
1366;SDS011;16877;48.810;9.282;2022-09-13T01:56:03;3.20;;;1.63;;
1366;SDS011;16877;48.810;9.282;2022-09-13T01:58:36;2.40;;;1.70;;
1366;SDS011;16877;48.810;9.282;2022-09-13T02:01:11;2.23;;;1.40;;
1366;SDS011;16877;48.810;9.282;2022-09-13T02:03:43;3.30;;;2.10;;
1366;SDS011;16877;48.810;9.282;2022-09-13T02:06:14;2.20;;;1.50;;
1366;SDS011;16877;48.810;9.282;2022-09-13T02:08:46;2.30;;;1.70;;
1366;SDS011;16877;48.810;9.282;2022-09-13T02:11:16;2.90;;;1.60;;
1366;SDS011;16877;48.810;9.282;2022-09-13T02:13:47;2.47;;;1.97;;
1366;SDS011;16877;48.810;9.282;2022-09-13T02:16:19;3.70;;;2.07;;
1366;SDS011;16877;48.810;9.282;2022-09-13T02:18:53;2.20;;;1.60;;
1366;SDS011;16877;48.810;9.282;2022-09-13T02:21:24;2.20;;;1.77;;
1366;SDS011;16877;48.810;9.282;2022-09-13T02:23:54;2.00;;;1.23;;
1366;SDS011;16877;48.810;9.282;2022-09-13T02:26:27;2.93;;;2.10;;
1366;SDS011;16877;48.810;9.282;2022-09-13T02:28:57;2.97;;;1.83;;
1366;SDS011;16877;48.810;9.282;2022-09-13T02:31:29;4.00;;;1.93;;
1366;SDS011;16877;48.810;9.282;2022-09-13T02:34:00;2.80;;;1.70;;
1366;SDS011;16877;48.810;9.282;2022-09-13T02:36:31;2.20;;;1.50;;
1366;SDS011;16877;48.810;9.282;2022-09-13T02:39:02;5.00;;;1.50;;
1366;SDS011;16877;48.810;9.282;2022-09-13T02:41:32;2.47;;;1.40;;
1366;SDS011;16877;48.810;9.282;2022-09-13T02:44:05;2.10;;;1.47;;
1366;SDS011;16877;48.810;9.282;2022-09-13T02:46:43;3.10;;;1.83;;
1366;SDS011;16877;48.810;9.282;2022-09-13T02:49:26;3.27;;;1.90;;
1366;SDS011;16877;48.810;9.282;2022-09-13T02:51:59;3.60;;;1.70;;
1366;SDS011;16877;48.810;9.282;2022-09-13T02:54:35;2.47;;;1.57;;
1366;SDS011;16877;48.810;9.282;2022-09-13T02:57:06;2.97;;;1.80;;
1366;SDS011;16877;48.810;9.282;2022-09-13T02:59:37;2.80;;;1.97;;
1366;SDS011;16877;48.810;9.282;2022-09-13T03:02:06;2.90;;;2.10;;
1366;SDS011;16877;48.810;9.282;2022-09-13T03:04:35;2.57;;;2.00;;
1366;SDS011;16877;48.810;9.282;2022-09-13T03:07:02;2.97;;;1.53;;
1366;SDS011;16877;48.810;9.282;2022-09-13T03:09:31;2.87;;;1.60;;
1366;SDS011;16877;48.810;9.282;2022-09-13T03:12:09;2.30;;;1.60;;
1366;SDS011;16877;48.810;9.282;2022-09-13T03:14:51;3.00;;;2.00;;
1366;SDS011;16877;48.810;9.282;2022-09-13T03:17:34;3.47;;;1.30;;
1366;SDS011;16877;48.810;9.282;2022-09-13T03:20:11;2.77;;;1.67;;
1366;SDS011;16877;48.810;9.282;2022-09-13T03:22:50;2.60;;;1.60;;
1366;SDS011;16877;48.810;9.282;2022-09-13T03:25:44;3.50;;;1.77;;
1366;SDS011;16877;48.810;9.282;2022-09-13T03:28:33;2.90;;;2.47;;
1366;SDS011;16877;48.810;9.282;2022-09-13T03:31:06;2.90;;;1.70;;
1366;SDS011;16877;48.810;9.282;2022-09-13T03:33:41;3.20;;;1.80;;
1366;SDS011;16877;48.810;9.282;2022-09-13T03:36:13;2.87;;;1.90;;
1366;SDS011;16877;48.810;9.282;2022-09-13T03:38:44;2.40;;;1.60;;
1366;SDS011;16877;48.810;9.282;2022-09-13T03:41:19;2.50;;;1.60;;
1366;SDS011;16877;48.810;9.282;2022-09-13T03:43:50;2.97;;;1.80;;
1366;SDS011;16877;48.810;9.282;2022-09-13T03:46:22;2.77;;;1.50;;
1366;SDS011;16877;48.810;9.282;2022-09-13T03:48:53;3.53;;;1.73;;
1366;SDS011;16877;48.810;9.282;2022-09-13T03:51:21;2.67;;;1.80;;
1366;SDS011;16877;48.810;9.282;2022-09-13T03:53:51;3.53;;;2.03;;
1366;SDS011;16877;48.810;9.282;2022-09-13T03:56:21;2.30;;;1.70;;
1366;SDS011;16877;48.810;9.282;2022-09-13T03:58:48;4.30;;;1.83;;
1366;SDS011;16877;48.810;9.282;2022-09-13T04:01:15;3.30;;;1.83;;
1366;SDS011;16877;48.810;9.282;2022-09-13T04:03:45;2.50;;;1.90;;
1366;SDS011;16877;48.810;9.282;2022-09-13T04:06:14;2.50;;;1.83;;
1366;SDS011;16877;48.810;9.282;2022-09-13T04:08:41;2.90;;;1.43;;
1366;SDS011;16877;48.810;9.282;2022-09-13T04:11:08;2.70;;;2.00;;
1366;SDS011;16877;48.810;9.282;2022-09-13T04:13:35;2.73;;;1.70;;
1366;SDS011;16877;48.810;9.282;2022-09-13T04:16:03;2.50;;;1.80;;
1366;SDS011;16877;48.810;9.282;2022-09-13T04:18:31;3.00;;;2.30;;
1366;SDS011;16877;48.810;9.282;2022-09-13T04:20:58;2.80;;;1.77;;
1366;SDS011;16877;48.810;9.282;2022-09-13T04:23:27;2.60;;;1.70;;
1366;SDS011;16877;48.810;9.282;2022-09-13T04:25:59;3.57;;;2.40;;
1366;SDS011;16877;48.810;9.282;2022-09-13T04:28:26;3.67;;;2.17;;
1366;SDS011;16877;48.810;9.282;2022-09-13T04:30:53;2.70;;;2.00;;
1366;SDS011;16877;48.810;9.282;2022-09-13T04:33:19;3.07;;;1.60;;
1366;SDS011;16877;48.810;9.282;2022-09-13T04:35:47;2.70;;;1.80;;
1366;SDS011;16877;48.810;9.282;2022-09-13T04:38:14;5.90;;;2.10;;
1366;SDS011;16877;48.810;9.282;2022-09-13T04:40:42;3.27;;;2.20;;
1366;SDS011;16877;48.810;9.282;2022-09-13T04:43:08;3.53;;;2.20;;
1366;SDS011;16877;48.810;9.282;2022-09-13T04:45:35;3.30;;;2.57;;
1366;SDS011;16877;48.810;9.282;2022-09-13T04:48:03;3.60;;;1.70;;
1366;SDS011;16877;48.810;9.282;2022-09-13T04:50:29;2.93;;;2.40;;
1366;SDS011;16877;48.810;9.282;2022-09-13T04:52:56;3.83;;;2.30;;
1366;SDS011;16877;48.810;9.282;2022-09-13T04:55:23;4.83;;;2.47;;
1366;SDS011;16877;48.810;9.282;2022-09-13T04:57:54;2.90;;;2.20;;
1366;SDS011;16877;48.810;9.282;2022-09-13T05:00:21;3.13;;;2.07;;
1366;SDS011;16877;48.810;9.282;2022-09-13T05:02:53;2.50;;;1.90;;
1366;SDS011;16877;48.810;9.282;2022-09-13T05:05:21;2.70;;;1.97;;
1366;SDS011;16877;48.810;9.282;2022-09-13T05:07:48;3.07;;;2.10;;
1366;SDS011;16877;48.810;9.282;2022-09-13T05:10:15;3.03;;;1.70;;
1366;SDS011;16877;48.810;9.282;2022-09-13T05:12:42;4.20;;;2.20;;
1366;SDS011;16877;48.810;9.282;2022-09-13T05:15:10;3.57;;;1.93;;
1366;SDS011;16877;48.810;9.282;2022-09-13T05:17:37;3.50;;;2.20;;
1366;SDS011;16877;48.810;9.282;2022-09-13T05:20:04;2.73;;;1.90;;
1366;SDS011;16877;48.810;9.282;2022-09-13T05:22:31;3.30;;;2.50;;
1366;SDS011;16877;48.810;9.282;2022-09-13T05:24:58;3.27;;;2.30;;
1366;SDS011;16877;48.810;9.282;2022-09-13T05:27:25;3.47;;;2.17;;
1366;SDS011;16877;48.810;9.282;2022-09-13T05:29:51;4.47;;;2.23;;
1366;SDS011;16877;48.810;9.282;2022-09-13T05:32:19;2.73;;;2.27;;
1366;SDS011;16877;48.810;9.282;2022-09-13T05:34:46;3.33;;;2.53;;
1366;SDS011;16877;48.810;9.282;2022-09-13T05:37:13;3.30;;;2.30;;
1366;SDS011;16877;48.810;9.282;2022-09-13T05:39:39;3.53;;;2.03;;
1366;SDS011;16877;48.810;9.282;2022-09-13T05:42:06;6.60;;;2.50;;
1366;SDS011;16877;48.810;9.282;2022-09-13T05:44:33;3.70;;;2.10;;
1366;SDS011;16877;48.810;9.282;2022-09-13T05:46:59;3.57;;;2.60;;
1366;SDS011;16877;48.810;9.282;2022-09-13T05:49:27;3.10;;;2.47;;
1366;SDS011;16877;48.810;9.282;2022-09-13T05:51:54;5.57;;;2.40;;
1366;SDS011;16877;48.810;9.282;2022-09-13T05:54:21;3.43;;;2.70;;
1366;SDS011;16877;48.810;9.282;2022-09-13T05:56:47;3.50;;;2.70;;
1366;SDS011;16877;48.810;9.282;2022-09-13T05:59:16;4.80;;;2.70;;
1366;SDS011;16877;48.810;9.282;2022-09-13T06:01:43;3.17;;;2.37;;
1366;SDS011;16877;48.810;9.282;2022-09-13T06:04:09;4.60;;;2.20;;
1366;SDS011;16877;48.810;9.282;2022-09-13T06:06:38;3.93;;;2.33;;
1366;SDS011;16877;48.810;9.282;2022-09-13T06:09:04;4.53;;;3.53;;
1366;SDS011;16877;48.810;9.282;2022-09-13T06:11:32;7.40;;;2.60;;
1366;SDS011;16877;48.810;9.282;2022-09-13T06:13:59;3.93;;;2.80;;
1366;SDS011;16877;48.810;9.282;2022-09-13T06:16:26;3.80;;;2.73;;
1366;SDS011;16877;48.810;9.282;2022-09-13T06:18:53;5.80;;;2.77;;
1366;SDS011;16877;48.810;9.282;2022-09-13T06:21:20;4.20;;;2.50;;
1366;SDS011;16877;48.810;9.282;2022-09-13T06:23:49;5.13;;;3.10;;
1366;SDS011;16877;48.810;9.282;2022-09-13T06:26:18;4.00;;;2.53;;
1366;SDS011;16877;48.810;9.282;2022-09-13T06:28:46;4.60;;;3.10;;
1366;SDS011;16877;48.810;9.282;2022-09-13T06:31:14;3.37;;;2.70;;
1366;SDS011;16877;48.810;9.282;2022-09-13T06:33:42;3.40;;;2.60;;
1366;SDS011;16877;48.810;9.282;2022-09-13T06:36:10;3.47;;;2.30;;
1366;SDS011;16877;48.810;9.282;2022-09-13T06:38:38;4.50;;;2.83;;
1366;SDS011;16877;48.810;9.282;2022-09-13T06:41:07;4.50;;;2.63;;
1366;SDS011;16877;48.810;9.282;2022-09-13T06:43:35;3.73;;;2.27;;
1366;SDS011;16877;48.810;9.282;2022-09-13T06:46:03;4.57;;;2.60;;
1366;SDS011;16877;48.810;9.282;2022-09-13T06:48:32;4.10;;;2.30;;
1366;SDS011;16877;48.810;9.282;2022-09-13T06:50:59;3.07;;;2.30;;
1366;SDS011;16877;48.810;9.282;2022-09-13T06:53:27;3.70;;;2.63;;
1366;SDS011;16877;48.810;9.282;2022-09-13T06:56:01;3.80;;;2.77;;
1366;SDS011;16877;48.810;9.282;2022-09-13T06:58:30;3.40;;;2.23;;
1366;SDS011;16877;48.810;9.282;2022-09-13T07:01:08;3.60;;;2.47;;
1366;SDS011;16877;48.810;9.282;2022-09-13T07:03:38;3.47;;;2.30;;
1366;SDS011;16877;48.810;9.282;2022-09-13T07:06:10;3.57;;;2.40;;
1366;SDS011;16877;48.810;9.282;2022-09-13T07:08:39;4.00;;;2.30;;
1366;SDS011;16877;48.810;9.282;2022-09-13T07:11:06;4.40;;;2.60;;
1366;SDS011;16877;48.810;9.282;2022-09-13T07:13:35;3.40;;;2.33;;
1366;SDS011;16877;48.810;9.282;2022-09-13T07:16:03;3.87;;;2.80;;
1366;SDS011;16877;48.810;9.282;2022-09-13T07:18:32;4.13;;;2.70;;
1366;SDS011;16877;48.810;9.282;2022-09-13T07:21:00;3.00;;;2.13;;
1366;SDS011;16877;48.810;9.282;2022-09-13T07:23:28;2.80;;;2.00;;
1366;SDS011;16877;48.810;9.282;2022-09-13T07:25:56;4.10;;;2.50;;
1366;SDS011;16877;48.810;9.282;2022-09-13T07:28:28;3.13;;;2.40;;
1366;SDS011;16877;48.810;9.282;2022-09-13T07:30:57;3.10;;;2.33;;
1366;SDS011;16877;48.810;9.282;2022-09-13T07:33:30;4.70;;;3.03;;
1366;SDS011;16877;48.810;9.282;2022-09-13T07:35:57;2.70;;;2.00;;
1366;SDS011;16877;48.810;9.282;2022-09-13T07:38:26;4.23;;;2.23;;
1366;SDS011;16877;48.810;9.282;2022-09-13T07:40:53;3.13;;;2.13;;
1366;SDS011;16877;48.810;9.282;2022-09-13T07:43:22;3.10;;;2.40;;
1366;SDS011;16877;48.810;9.282;2022-09-13T07:45:54;2.83;;;2.33;;
1366;SDS011;16877;48.810;9.282;2022-09-13T07:48:24;3.63;;;2.07;;
1366;SDS011;16877;48.810;9.282;2022-09-13T07:51:01;3.43;;;2.30;;
1366;SDS011;16877;48.810;9.282;2022-09-13T07:53:29;4.23;;;2.47;;
1366;SDS011;16877;48.810;9.282;2022-09-13T07:56:01;5.23;;;2.80;;
1366;SDS011;16877;48.810;9.282;2022-09-13T07:58:28;3.37;;;2.37;;
1366;SDS011;16877;48.810;9.282;2022-09-13T08:00:56;3.57;;;2.70;;
1366;SDS011;16877;48.810;9.282;2022-09-13T08:03:30;2.93;;;1.93;;
1366;SDS011;16877;48.810;9.282;2022-09-13T08:05:57;4.00;;;2.50;;
1366;SDS011;16877;48.810;9.282;2022-09-13T08:08:24;4.80;;;2.53;;
1366;SDS011;16877;48.810;9.282;2022-09-13T08:10:50;5.93;;;3.37;;
1366;SDS011;16877;48.810;9.282;2022-09-13T08:13:17;5.30;;;2.60;;
1366;SDS011;16877;48.810;9.282;2022-09-13T08:15:44;4.00;;;2.07;;
1366;SDS011;16877;48.810;9.282;2022-09-13T08:18:10;3.30;;;2.13;;
1366;SDS011;16877;48.810;9.282;2022-09-13T08:20:38;3.63;;;2.07;;
1366;SDS011;16877;48.810;9.282;2022-09-13T08:23:06;2.40;;;1.63;;
1366;SDS011;16877;48.810;9.282;2022-09-13T08:25:33;4.53;;;1.93;;
1366;SDS011;16877;48.810;9.282;2022-09-13T08:28:00;2.63;;;1.70;;
1366;SDS011;16877;48.810;9.282;2022-09-13T08:30:27;3.33;;;2.00;;
1366;SDS011;16877;48.810;9.282;2022-09-13T08:32:57;2.43;;;1.67;;
1366;SDS011;16877;48.810;9.282;2022-09-13T08:35:25;3.60;;;1.70;;
1366;SDS011;16877;48.810;9.282;2022-09-13T08:37:53;5.93;;;2.10;;
1366;SDS011;16877;48.810;9.282;2022-09-13T08:40:21;2.70;;;1.80;;
1366;SDS011;16877;48.810;9.282;2022-09-13T08:42:52;2.37;;;1.70;;
1366;SDS011;16877;48.810;9.282;2022-09-13T08:45:26;3.50;;;2.43;;
1366;SDS011;16877;48.810;9.282;2022-09-13T08:47:55;2.43;;;1.60;;
1366;SDS011;16877;48.810;9.282;2022-09-13T08:50:25;4.83;;;2.00;;
1366;SDS011;16877;48.810;9.282;2022-09-13T08:52:58;2.87;;;1.70;;
1366;SDS011;16877;48.810;9.282;2022-09-13T08:55:39;2.47;;;1.47;;
1366;SDS011;16877;48.810;9.282;2022-09-13T08:58:27;3.50;;;1.70;;
1366;SDS011;16877;48.810;9.282;2022-09-13T09:01:15;2.30;;;1.47;;
1366;SDS011;16877;48.810;9.282;2022-09-13T09:03:50;2.73;;;1.43;;
1366;SDS011;16877;48.810;9.282;2022-09-13T09:06:21;3.70;;;1.70;;
1366;SDS011;16877;48.810;9.282;2022-09-13T09:08:50;2.90;;;1.80;;
1366;SDS011;16877;48.810;9.282;2022-09-13T09:11:24;2.90;;;2.03;;
1366;SDS011;16877;48.810;9.282;2022-09-13T09:13:56;2.20;;;1.30;;
1366;SDS011;16877;48.810;9.282;2022-09-13T09:16:30;3.47;;;1.40;;
1366;SDS011;16877;48.810;9.282;2022-09-13T09:19:03;2.90;;;1.80;;
1366;SDS011;16877;48.810;9.282;2022-09-13T09:21:38;2.60;;;1.30;;
1366;SDS011;16877;48.810;9.282;2022-09-13T09:24:08;2.70;;;1.47;;
1366;SDS011;16877;48.810;9.282;2022-09-13T09:26:41;2.20;;;1.20;;
1366;SDS011;16877;48.810;9.282;2022-09-13T09:29:10;2.13;;;1.30;;
1366;SDS011;16877;48.810;9.282;2022-09-13T09:31:43;2.27;;;1.30;;
1366;SDS011;16877;48.810;9.282;2022-09-13T09:34:21;4.80;;;1.70;;
1366;SDS011;16877;48.810;9.282;2022-09-13T09:37:07;4.03;;;1.83;;
1366;SDS011;16877;48.810;9.282;2022-09-13T09:39:43;3.43;;;1.90;;
1366;SDS011;16877;48.810;9.282;2022-09-13T09:42:10;2.57;;;1.40;;
1366;SDS011;16877;48.810;9.282;2022-09-13T09:44:39;3.57;;;1.93;;
1366;SDS011;16877;48.810;9.282;2022-09-13T09:47:11;3.23;;;1.30;;
1366;SDS011;16877;48.810;9.282;2022-09-13T09:49:41;2.50;;;1.50;;
1366;SDS011;16877;48.810;9.282;2022-09-13T09:52:29;3.43;;;1.80;;
1366;SDS011;16877;48.810;9.282;2022-09-13T09:55:08;2.60;;;1.30;;
1366;SDS011;16877;48.810;9.282;2022-09-13T09:57:48;2.87;;;1.63;;
1366;SDS011;16877;48.810;9.282;2022-09-13T10:00:17;2.70;;;1.70;;
1366;SDS011;16877;48.810;9.282;2022-09-13T10:02:45;3.53;;;1.50;;
1366;SDS011;16877;48.810;9.282;2022-09-13T10:05:13;2.40;;;1.20;;
1366;SDS011;16877;48.810;9.282;2022-09-13T10:07:44;2.27;;;1.30;;
1366;SDS011;16877;48.810;9.282;2022-09-13T10:10:21;2.23;;;1.47;;
1366;SDS011;16877;48.810;9.282;2022-09-13T10:12:51;2.83;;;1.37;;
1366;SDS011;16877;48.810;9.282;2022-09-13T10:15:21;2.93;;;1.47;;
1366;SDS011;16877;48.810;9.282;2022-09-13T10:18:00;3.93;;;1.60;;
1366;SDS011;16877;48.810;9.282;2022-09-13T10:20:33;2.87;;;1.57;;
1366;SDS011;16877;48.810;9.282;2022-09-13T10:23:08;2.37;;;1.50;;
1366;SDS011;16877;48.810;9.282;2022-09-13T10:25:38;3.70;;;1.70;;
1366;SDS011;16877;48.810;9.282;2022-09-13T10:28:09;2.37;;;1.63;;
1366;SDS011;16877;48.810;9.282;2022-09-13T10:30:39;3.30;;;1.73;;
1366;SDS011;16877;48.810;9.282;2022-09-13T10:33:15;3.17;;;1.53;;
1366;SDS011;16877;48.810;9.282;2022-09-13T10:35:49;3.50;;;1.80;;
1366;SDS011;16877;48.810;9.282;2022-09-13T10:38:21;3.00;;;1.53;;
1366;SDS011;16877;48.810;9.282;2022-09-13T10:40:54;3.20;;;1.40;;
1366;SDS011;16877;48.810;9.282;2022-09-13T10:43:22;3.70;;;1.30;;
1366;SDS011;16877;48.810;9.282;2022-09-13T10:45:52;2.70;;;1.60;;
1366;SDS011;16877;48.810;9.282;2022-09-13T10:48:19;2.60;;;1.67;;
1366;SDS011;16877;48.810;9.282;2022-09-13T10:50:59;2.20;;;1.20;;
1366;SDS011;16877;48.810;9.282;2022-09-13T10:53:32;2.90;;;0.97;;
1366;SDS011;16877;48.810;9.282;2022-09-13T10:56:03;2.70;;;1.60;;
1366;SDS011;16877;48.810;9.282;2022-09-13T10:58:31;5.30;;;1.57;;
1366;SDS011;16877;48.810;9.282;2022-09-13T11:01:25;2.70;;;1.40;;
1366;SDS011;16877;48.810;9.282;2022-09-13T11:04:22;3.20;;;1.57;;
1366;SDS011;16877;48.810;9.282;2022-09-13T11:07:06;2.40;;;1.27;;
1366;SDS011;16877;48.810;9.282;2022-09-13T11:09:45;2.53;;;1.27;;
1366;SDS011;16877;48.810;9.282;2022-09-13T11:12:22;4.05;;;1.35;;
1366;SDS011;16877;48.810;9.282;2022-09-13T11:14:58;3.17;;;1.23;;
1366;SDS011;16877;48.810;9.282;2022-09-13T11:17:34;2.40;;;1.30;;
1366;SDS011;16877;48.810;9.282;2022-09-13T11:20:17;3.17;;;1.20;;
1366;SDS011;16877;48.810;9.282;2022-09-13T11:23:02;2.80;;;1.38;;
1366;SDS011;16877;48.810;9.282;2022-09-13T11:25:56;2.08;;;1.17;;
1366;SDS011;16877;48.810;9.282;2022-09-13T11:28:34;2.83;;;1.55;;
1366;SDS011;16877;48.810;9.282;2022-09-13T11:31:20;2.22;;;1.10;;
1366;SDS011;16877;48.810;9.282;2022-09-13T11:34:09;2.97;;;1.50;;
1366;SDS011;16877;48.810;9.282;2022-09-13T11:36:53;3.30;;;1.40;;
1366;SDS011;16877;48.810;9.282;2022-09-13T11:39:36;3.67;;;1.30;;
1366;SDS011;16877;48.810;9.282;2022-09-13T11:42:07;2.20;;;1.02;;
1366;SDS011;16877;48.810;9.282;2022-09-13T11:44:52;2.30;;;1.20;;
1366;SDS011;16877;48.810;9.282;2022-09-13T11:47:43;2.30;;;1.08;;
1366;SDS011;16877;48.810;9.282;2022-09-13T11:50:30;2.42;;;1.10;;
1366;SDS011;16877;48.810;9.282;2022-09-13T11:56:02;2.47;;;1.20;;
1366;SDS011;16877;48.810;9.282;2022-09-13T11:58:34;2.85;;;1.00;;
1366;SDS011;16877;48.810;9.282;2022-09-13T12:01:09;3.22;;;1.10;;
1366;SDS011;16877;48.810;9.282;2022-09-13T12:03:39;1.95;;;0.85;;
1366;SDS011;16877;48.810;9.282;2022-09-13T12:06:13;2.88;;;1.50;;
1366;SDS011;16877;48.810;9.282;2022-09-13T12:08:45;2.83;;;1.17;;
1366;SDS011;16877;48.810;9.282;2022-09-13T12:11:16;3.15;;;1.58;;
1366;SDS011;16877;48.810;9.282;2022-09-13T12:13:47;2.30;;;1.25;;
1366;SDS011;16877;48.810;9.282;2022-09-13T12:16:19;2.30;;;1.38;;
1366;SDS011;16877;48.810;9.282;2022-09-13T12:18:49;2.88;;;1.20;;
1366;SDS011;16877;48.810;9.282;2022-09-13T12:21:20;2.40;;;1.00;;
1366;SDS011;16877;48.810;9.282;2022-09-13T12:23:50;2.63;;;1.25;;
1366;SDS011;16877;48.810;9.282;2022-09-13T12:26:25;2.25;;;0.98;;
1366;SDS011;16877;48.810;9.282;2022-09-13T12:29:00;3.55;;;0.98;;
1366;SDS011;16877;48.810;9.282;2022-09-13T12:31:34;2.10;;;0.80;;
1366;SDS011;16877;48.810;9.282;2022-09-13T12:34:02;2.15;;;1.00;;
1366;SDS011;16877;48.810;9.282;2022-09-13T12:36:35;2.78;;;0.93;;
1366;SDS011;16877;48.810;9.282;2022-09-13T12:39:30;2.60;;;1.00;;
1366;SDS011;16877;48.810;9.282;2022-09-13T12:42:22;2.00;;;0.85;;
1366;SDS011;16877;48.810;9.282;2022-09-13T12:48:31;3.30;;;1.08;;
1366;SDS011;16877;48.810;9.282;2022-09-13T12:51:32;2.20;;;0.85;;
1366;SDS011;16877;48.810;9.282;2022-09-13T12:54:17;2.80;;;1.17;;
1366;SDS011;16877;48.810;9.282;2022-09-13T12:57:01;2.45;;;0.90;;
1366;SDS011;16877;48.810;9.282;2022-09-13T13:02:35;2.13;;;0.75;;
1366;SDS011;16877;48.810;9.282;2022-09-13T13:05:14;1.77;;;0.52;;
1366;SDS011;16877;48.810;9.282;2022-09-13T13:07:49;1.95;;;0.80;;
1366;SDS011;16877;48.810;9.282;2022-09-13T13:10:25;1.88;;;0.70;;
1366;SDS011;16877;48.810;9.282;2022-09-13T13:12:55;2.13;;;0.80;;
1366;SDS011;16877;48.810;9.282;2022-09-13T13:15:54;1.75;;;0.63;;
1366;SDS011;16877;48.810;9.282;2022-09-13T13:18:42;2.10;;;0.90;;
1366;SDS011;16877;48.810;9.282;2022-09-13T13:33:14;2.70;;;0.80;;
1366;SDS011;16877;48.810;9.282;2022-09-13T13:35:43;2.17;;;0.70;;
1366;SDS011;16877;48.810;9.282;2022-09-13T13:41:07;2.40;;;1.15;;
1366;SDS011;16877;48.810;9.282;2022-09-13T13:50:29;2.17;;;0.90;;
1366;SDS011;16877;48.810;9.282;2022-09-13T13:52:56;3.20;;;0.90;;
1366;SDS011;16877;48.810;9.282;2022-09-13T13:55:40;2.30;;;1.17;;
1366;SDS011;16877;48.810;9.282;2022-09-13T13:58:21;3.40;;;1.05;;
1366;SDS011;16877;48.810;9.282;2022-09-13T14:00:55;2.30;;;1.05;;
1366;SDS011;16877;48.810;9.282;2022-09-13T14:03:27;2.10;;;1.10;;
1366;SDS011;16877;48.810;9.282;2022-09-13T14:06:03;2.33;;;0.88;;
1366;SDS011;16877;48.810;9.282;2022-09-13T14:08:40;2.10;;;0.90;;
1366;SDS011;16877;48.810;9.282;2022-09-13T14:11:17;2.35;;;0.90;;
1366;SDS011;16877;48.810;9.282;2022-09-13T14:13:58;2.00;;;0.80;;
1366;SDS011;16877;48.810;9.282;2022-09-13T14:16:41;1.95;;;0.80;;
1366;SDS011;16877;48.810;9.282;2022-09-13T14:19:21;2.95;;;1.08;;
1366;SDS011;16877;48.810;9.282;2022-09-13T14:22:05;2.63;;;1.00;;
1366;SDS011;16877;48.810;9.282;2022-09-13T14:24:38;1.70;;;0.50;;
1366;SDS011;16877;48.810;9.282;2022-09-13T14:27:09;2.00;;;0.65;;
1366;SDS011;16877;48.810;9.282;2022-09-13T14:29:44;3.08;;;1.10;;
1366;SDS011;16877;48.810;9.282;2022-09-13T14:32:14;2.83;;;0.82;;
1366;SDS011;16877;48.810;9.282;2022-09-13T14:34:51;2.17;;;0.98;;
1366;SDS011;16877;48.810;9.282;2022-09-13T14:37:22;2.15;;;1.02;;
1366;SDS011;16877;48.810;9.282;2022-09-13T14:39:52;4.70;;;1.10;;
1366;SDS011;16877;48.810;9.282;2022-09-13T14:42:20;2.10;;;1.02;;
1366;SDS011;16877;48.810;9.282;2022-09-13T14:44:49;2.85;;;1.13;;
1366;SDS011;16877;48.810;9.282;2022-09-13T14:47:18;3.92;;;1.38;;
1366;SDS011;16877;48.810;9.282;2022-09-13T14:49:50;2.08;;;0.95;;
1366;SDS011;16877;48.810;9.282;2022-09-13T14:52:22;2.22;;;1.00;;
1366;SDS011;16877;48.810;9.282;2022-09-13T14:54:54;2.10;;;0.95;;
1366;SDS011;16877;48.810;9.282;2022-09-13T14:57:28;2.45;;;1.00;;
1366;SDS011;16877;48.810;9.282;2022-09-13T15:00:00;2.28;;;0.90;;
1366;SDS011;16877;48.810;9.282;2022-09-13T15:02:34;3.42;;;1.30;;
1366;SDS011;16877;48.810;9.282;2022-09-13T15:05:04;2.80;;;1.30;;
1366;SDS011;16877;48.810;9.282;2022-09-13T15:07:34;2.28;;;1.25;;
1366;SDS011;16877;48.810;9.282;2022-09-13T15:10:06;2.22;;;1.15;;
1366;SDS011;16877;48.810;9.282;2022-09-13T15:12:48;2.63;;;1.45;;
1366;SDS011;16877;48.810;9.282;2022-09-13T15:15:22;2.40;;;1.35;;
1366;SDS011;16877;48.810;9.282;2022-09-13T15:17:52;3.42;;;1.17;;
1366;SDS011;16877;48.810;9.282;2022-09-13T15:20:19;2.30;;;1.02;;
1366;SDS011;16877;48.810;9.282;2022-09-13T15:22:47;2.15;;;1.08;;
1366;SDS011;16877;48.810;9.282;2022-09-13T15:25:18;3.10;;;0.98;;
1366;SDS011;16877;48.810;9.282;2022-09-13T15:27:46;2.15;;;0.88;;
1366;SDS011;16877;48.810;9.282;2022-09-13T15:30:22;2.20;;;1.02;;
1366;SDS011;16877;48.810;9.282;2022-09-13T15:35:42;2.40;;;1.17;;
1366;SDS011;16877;48.810;9.282;2022-09-13T15:38:14;2.40;;;1.20;;
1366;SDS011;16877;48.810;9.282;2022-09-13T15:40:45;2.20;;;0.82;;
1366;SDS011;16877;48.810;9.282;2022-09-13T15:43:12;3.25;;;1.25;;
1366;SDS011;16877;48.810;9.282;2022-09-13T15:45:40;3.00;;;1.13;;
1366;SDS011;16877;48.810;9.282;2022-09-13T15:48:09;4.60;;;1.20;;
1366;SDS011;16877;48.810;9.282;2022-09-13T15:50:46;2.37;;;0.87;;
1366;SDS011;16877;48.810;9.282;2022-09-13T15:53:30;2.30;;;1.17;;
1366;SDS011;16877;48.810;9.282;2022-09-13T15:55:57;3.67;;;1.23;;
1366;SDS011;16877;48.810;9.282;2022-09-13T15:58:26;2.60;;;1.30;;
1366;SDS011;16877;48.810;9.282;2022-09-13T16:00:54;3.47;;;1.13;;
1366;SDS011;16877;48.810;9.282;2022-09-13T16:03:20;2.50;;;0.93;;
1366;SDS011;16877;48.810;9.282;2022-09-13T16:05:47;3.00;;;1.33;;
1366;SDS011;16877;48.810;9.282;2022-09-13T16:08:14;2.90;;;1.13;;